Etusivu
METAR-TAF:

METAR-TAF

Lentoasemat :

Bryan, Texas, Yhdysvallat

Leveyspiiri: 30-42-56N, Pituuspiiri: 096-19-53W, korkeus merenpinnasta: 112 m

Tämänhetkinen sää

Tämä raportti tehtiin 27 minuuttia sitten, kello 21.35 UTC
Tuuli 10 kn kaakosta
Lämpötila 30°C
Kosteus 70%
Ilmanpaine 1009 hPa
Näkyvyys: 16.1 km
Hajanaisia pilviä 4000 ft:n korkeudessa
Hajanaisia pilviä 4500 ft:n korkeudessa
Hajonneita pilviä 6000 ft:n korkeudessa

METAR: KCFD 232135Z AUTO 14010KT 10SM SCT040 SCT045 BKN060 30/24 A2980 RMK AO2 T03010237

Aika: 16:02 (22:02 UTC)


TAF: puuttuu

Säähavainnot ja -ennusteet yli 4000 lentoasemalta (METAR- ja TAF-raportit).

Käytössä olevat sääasemat on merkitty karttaan keltaisilla ja punaisilla pisteillä.

Aseta hiiri pisteen päälle nähdäksesi sääaseman nimen.

Klikkaa sitten nähdäksesi säähavainnot ja -ennusteet.

Kartan vaihtaminen: klikkaa mustalla rastilla varustettuja vihreitä pisteitä, niin voit zoomata sisään; viivalla varustettua vihreää pistettä, niin voit zoomata ulos tai vihreitä nuolia, niin pääset viereisille kartoille.


METAR-TAF: